sensor_id;sensor_type;location;lat;lon;timestamp;P1;durP1;ratioP1;P2;durP2;ratioP2
30036;SDS011;36325;51.512;-0.382;2023-04-21T00:00:05;31.20;;;12.63;;
30036;SDS011;36325;51.512;-0.382;2023-04-21T00:02:35;38.13;;;15.82;;
30036;SDS011;36325;51.512;-0.382;2023-04-21T00:05:06;29.67;;;13.57;;
30036;SDS011;36325;51.512;-0.382;2023-04-21T00:07:39;29.23;;;12.88;;
30036;SDS011;36325;51.512;-0.382;2023-04-21T00:10:07;28.42;;;11.88;;
30036;SDS011;36325;51.512;-0.382;2023-04-21T00:12:36;35.38;;;13.30;;
30036;SDS011;36325;51.512;-0.382;2023-04-21T00:15:04;30.75;;;11.80;;
30036;SDS011;36325;51.512;-0.382;2023-04-21T00:17:31;36.67;;;14.93;;
30036;SDS011;36325;51.512;-0.382;2023-04-21T00:19:58;27.77;;;14.50;;
30036;SDS011;36325;51.512;-0.382;2023-04-21T00:22:26;36.45;;;14.95;;
30036;SDS011;36325;51.512;-0.382;2023-04-21T00:24:53;35.15;;;15.35;;
30036;SDS011;36325;51.512;-0.382;2023-04-21T00:27:20;31.30;;;14.55;;
30036;SDS011;36325;51.512;-0.382;2023-04-21T00:29:47;30.55;;;13.73;;
30036;SDS011;36325;51.512;-0.382;2023-04-21T00:32:15;31.08;;;14.63;;
30036;SDS011;36325;51.512;-0.382;2023-04-21T00:34:43;35.72;;;14.70;;
30036;SDS011;36325;51.512;-0.382;2023-04-21T00:37:10;30.90;;;12.30;;
30036;SDS011;36325;51.512;-0.382;2023-04-21T00:39:38;29.15;;;14.90;;
30036;SDS011;36325;51.512;-0.382;2023-04-21T00:42:05;40.33;;;15.27;;
30036;SDS011;36325;51.512;-0.382;2023-04-21T00:44:34;35.67;;;16.13;;
30036;SDS011;36325;51.512;-0.382;2023-04-21T00:47:02;26.02;;;14.85;;
30036;SDS011;36325;51.512;-0.382;2023-04-21T00:49:29;38.63;;;16.35;;
30036;SDS011;36325;51.512;-0.382;2023-04-21T00:51:57;38.53;;;15.15;;
30036;SDS011;36325;51.512;-0.382;2023-04-21T00:54:24;34.78;;;14.45;;
30036;SDS011;36325;51.512;-0.382;2023-04-21T00:56:54;33.45;;;15.85;;
30036;SDS011;36325;51.512;-0.382;2023-04-21T00:59:26;37.95;;;17.48;;
30036;SDS011;36325;51.512;-0.382;2023-04-21T01:01:55;35.53;;;14.77;;
30036;SDS011;36325;51.512;-0.382;2023-04-21T01:04:22;34.15;;;16.42;;
30036;SDS011;36325;51.512;-0.382;2023-04-21T01:06:49;37.10;;;15.45;;
30036;SDS011;36325;51.512;-0.382;2023-04-21T01:09:17;37.47;;;16.83;;
30036;SDS011;36325;51.512;-0.382;2023-04-21T01:12:01;37.08;;;15.40;;
30036;SDS011;36325;51.512;-0.382;2023-04-21T01:14:32;36.92;;;15.90;;
30036;SDS011;36325;51.512;-0.382;2023-04-21T01:17:02;29.95;;;14.73;;
30036;SDS011;36325;51.512;-0.382;2023-04-21T01:19:31;38.88;;;15.07;;
30036;SDS011;36325;51.512;-0.382;2023-04-21T01:22:01;34.15;;;16.20;;
30036;SDS011;36325;51.512;-0.382;2023-04-21T01:24:36;28.00;;;13.45;;
30036;SDS011;36325;51.512;-0.382;2023-04-21T01:27:25;40.13;;;15.98;;
30036;SDS011;36325;51.512;-0.382;2023-04-21T01:29:52;36.08;;;16.60;;
30036;SDS011;36325;51.512;-0.382;2023-04-21T01:32:26;39.20;;;15.18;;
30036;SDS011;36325;51.512;-0.382;2023-04-21T01:34:56;44.28;;;16.48;;
30036;SDS011;36325;51.512;-0.382;2023-04-21T01:37:26;34.25;;;15.70;;
30036;SDS011;36325;51.512;-0.382;2023-04-21T01:39:56;32.00;;;16.27;;
30036;SDS011;36325;51.512;-0.382;2023-04-21T01:42:26;37.42;;;16.00;;
30036;SDS011;36325;51.512;-0.382;2023-04-21T01:44:56;35.70;;;15.80;;
30036;SDS011;36325;51.512;-0.382;2023-04-21T01:47:24;32.47;;;17.10;;
30036;SDS011;36325;51.512;-0.382;2023-04-21T01:49:51;43.65;;;18.13;;
30036;SDS011;36325;51.512;-0.382;2023-04-21T01:52:19;31.20;;;15.18;;
30036;SDS011;36325;51.512;-0.382;2023-04-21T01:54:47;32.05;;;14.38;;
30036;SDS011;36325;51.512;-0.382;2023-04-21T01:57:14;39.33;;;16.90;;
30036;SDS011;36325;51.512;-0.382;2023-04-21T01:59:44;39.72;;;18.40;;
30036;SDS011;36325;51.512;-0.382;2023-04-21T02:02:11;37.38;;;15.95;;
30036;SDS011;36325;51.512;-0.382;2023-04-21T02:04:38;41.95;;;15.68;;
30036;SDS011;36325;51.512;-0.382;2023-04-21T02:07:06;37.78;;;17.95;;
30036;SDS011;36325;51.512;-0.382;2023-04-21T02:09:33;42.88;;;18.55;;
30036;SDS011;36325;51.512;-0.382;2023-04-21T02:12:00;43.78;;;17.33;;
30036;SDS011;36325;51.512;-0.382;2023-04-21T02:14:28;35.50;;;17.95;;
30036;SDS011;36325;51.512;-0.382;2023-04-21T02:16:55;44.53;;;17.88;;
30036;SDS011;36325;51.512;-0.382;2023-04-21T02:19:22;36.95;;;17.85;;
30036;SDS011;36325;51.512;-0.382;2023-04-21T02:21:50;36.72;;;17.90;;
30036;SDS011;36325;51.512;-0.382;2023-04-21T02:24:20;44.72;;;17.98;;
30036;SDS011;36325;51.512;-0.382;2023-04-21T02:26:47;41.22;;;20.00;;
30036;SDS011;36325;51.512;-0.382;2023-04-21T02:29:14;37.50;;;17.38;;
30036;SDS011;36325;51.512;-0.382;2023-04-21T02:31:42;45.15;;;19.08;;
30036;SDS011;36325;51.512;-0.382;2023-04-21T02:36:51;38.58;;;16.67;;
30036;SDS011;36325;51.512;-0.382;2023-04-21T02:39:18;40.33;;;16.65;;
30036;SDS011;36325;51.512;-0.382;2023-04-21T02:41:46;40.05;;;19.92;;
30036;SDS011;36325;51.512;-0.382;2023-04-21T02:44:13;46.42;;;19.05;;
30036;SDS011;36325;51.512;-0.382;2023-04-21T02:46:41;43.90;;;18.08;;
30036;SDS011;36325;51.512;-0.382;2023-04-21T02:49:08;38.45;;;17.52;;
30036;SDS011;36325;51.512;-0.382;2023-04-21T02:51:36;40.88;;;19.55;;
30036;SDS011;36325;51.512;-0.382;2023-04-21T02:54:03;45.95;;;16.20;;
30036;SDS011;36325;51.512;-0.382;2023-04-21T02:56:31;45.15;;;19.17;;
30036;SDS011;36325;51.512;-0.382;2023-04-21T02:59:00;42.17;;;18.45;;
30036;SDS011;36325;51.512;-0.382;2023-04-21T03:01:27;42.97;;;18.45;;
30036;SDS011;36325;51.512;-0.382;2023-04-21T03:03:54;42.83;;;20.73;;
30036;SDS011;36325;51.512;-0.382;2023-04-21T03:06:21;48.70;;;20.70;;
30036;SDS011;36325;51.512;-0.382;2023-04-21T03:08:49;47.13;;;18.20;;
30036;SDS011;36325;51.512;-0.382;2023-04-21T03:11:17;51.17;;;19.33;;
30036;SDS011;36325;51.512;-0.382;2023-04-21T03:13:44;38.95;;;19.48;;
30036;SDS011;36325;51.512;-0.382;2023-04-21T03:16:11;37.47;;;18.58;;
30036;SDS011;36325;51.512;-0.382;2023-04-21T03:18:42;51.67;;;20.63;;
30036;SDS011;36325;51.512;-0.382;2023-04-21T03:21:11;51.83;;;18.35;;
30036;SDS011;36325;51.512;-0.382;2023-04-21T03:23:38;41.13;;;20.27;;
30036;SDS011;36325;51.512;-0.382;2023-04-21T03:26:06;37.63;;;18.30;;
30036;SDS011;36325;51.512;-0.382;2023-04-21T03:28:34;43.65;;;18.95;;
30036;SDS011;36325;51.512;-0.382;2023-04-21T03:31:01;47.88;;;19.00;;
30036;SDS011;36325;51.512;-0.382;2023-04-21T03:33:29;50.45;;;20.88;;
30036;SDS011;36325;51.512;-0.382;2023-04-21T03:35:56;44.10;;;18.02;;
30036;SDS011;36325;51.512;-0.382;2023-04-21T03:38:23;44.88;;;20.63;;
30036;SDS011;36325;51.512;-0.382;2023-04-21T03:40:51;48.13;;;20.55;;
30036;SDS011;36325;51.512;-0.382;2023-04-21T03:43:19;49.35;;;20.92;;
30036;SDS011;36325;51.512;-0.382;2023-04-21T03:45:46;48.58;;;18.67;;
30036;SDS011;36325;51.512;-0.382;2023-04-21T03:48:13;41.20;;;17.98;;
30036;SDS011;36325;51.512;-0.382;2023-04-21T03:50:40;45.78;;;17.23;;
30036;SDS011;36325;51.512;-0.382;2023-04-21T03:53:07;43.88;;;19.90;;
30036;SDS011;36325;51.512;-0.382;2023-04-21T03:55:35;45.15;;;18.98;;
30036;SDS011;36325;51.512;-0.382;2023-04-21T03:58:02;48.63;;;19.13;;
30036;SDS011;36325;51.512;-0.382;2023-04-21T04:00:29;46.92;;;20.30;;
30036;SDS011;36325;51.512;-0.382;2023-04-21T04:02:57;54.00;;;20.75;;
30036;SDS011;36325;51.512;-0.382;2023-04-21T04:05:24;43.00;;;17.77;;
30036;SDS011;36325;51.512;-0.382;2023-04-21T04:07:51;36.00;;;17.83;;
30036;SDS011;36325;51.512;-0.382;2023-04-21T04:10:19;54.50;;;20.17;;
30036;SDS011;36325;51.512;-0.382;2023-04-21T04:12:46;48.38;;;19.80;;
30036;SDS011;36325;51.512;-0.382;2023-04-21T04:15:14;38.88;;;18.83;;
30036;SDS011;36325;51.512;-0.382;2023-04-21T04:17:41;45.63;;;21.63;;
30036;SDS011;36325;51.512;-0.382;2023-04-21T04:20:08;42.03;;;19.52;;
30036;SDS011;36325;51.512;-0.382;2023-04-21T04:22:35;53.65;;;19.05;;
30036;SDS011;36325;51.512;-0.382;2023-04-21T04:25:03;52.10;;;20.10;;
30036;SDS011;36325;51.512;-0.382;2023-04-21T04:27:30;42.92;;;20.00;;
30036;SDS011;36325;51.512;-0.382;2023-04-21T04:29:57;46.20;;;19.50;;
30036;SDS011;36325;51.512;-0.382;2023-04-21T04:32:25;49.60;;;21.10;;
30036;SDS011;36325;51.512;-0.382;2023-04-21T04:34:55;44.50;;;18.52;;
30036;SDS011;36325;51.512;-0.382;2023-04-21T04:37:22;50.15;;;21.15;;
30036;SDS011;36325;51.512;-0.382;2023-04-21T04:39:53;59.15;;;20.48;;
30036;SDS011;36325;51.512;-0.382;2023-04-21T04:42:21;48.45;;;20.50;;
30036;SDS011;36325;51.512;-0.382;2023-04-21T04:44:54;52.30;;;20.70;;
30036;SDS011;36325;51.512;-0.382;2023-04-21T04:47:23;56.40;;;20.90;;
30036;SDS011;36325;51.512;-0.382;2023-04-21T04:49:51;42.47;;;19.92;;
30036;SDS011;36325;51.512;-0.382;2023-04-21T04:52:24;52.72;;;20.05;;
30036;SDS011;36325;51.512;-0.382;2023-04-21T04:54:51;41.08;;;19.67;;
30036;SDS011;36325;51.512;-0.382;2023-04-21T04:57:18;54.55;;;19.02;;
30036;SDS011;36325;51.512;-0.382;2023-04-21T04:59:46;45.22;;;20.02;;
30036;SDS011;36325;51.512;-0.382;2023-04-21T05:02:13;44.00;;;20.35;;
30036;SDS011;36325;51.512;-0.382;2023-04-21T05:04:41;44.22;;;19.05;;
30036;SDS011;36325;51.512;-0.382;2023-04-21T05:07:09;42.00;;;19.63;;
30036;SDS011;36325;51.512;-0.382;2023-04-21T05:09:36;51.03;;;19.88;;
30036;SDS011;36325;51.512;-0.382;2023-04-21T05:12:03;48.75;;;19.23;;
30036;SDS011;36325;51.512;-0.382;2023-04-21T05:14:31;41.30;;;18.67;;
30036;SDS011;36325;51.512;-0.382;2023-04-21T05:16:58;44.55;;;19.55;;
30036;SDS011;36325;51.512;-0.382;2023-04-21T05:19:25;54.85;;;19.33;;
30036;SDS011;36325;51.512;-0.382;2023-04-21T05:21:57;45.47;;;19.95;;
30036;SDS011;36325;51.512;-0.382;2023-04-21T05:24:27;50.53;;;21.58;;
30036;SDS011;36325;51.512;-0.382;2023-04-21T05:26:55;46.25;;;18.48;;
30036;SDS011;36325;51.512;-0.382;2023-04-21T05:29:22;47.92;;;20.65;;
30036;SDS011;36325;51.512;-0.382;2023-04-21T05:31:49;47.08;;;20.33;;
30036;SDS011;36325;51.512;-0.382;2023-04-21T05:34:16;46.22;;;21.35;;
30036;SDS011;36325;51.512;-0.382;2023-04-21T05:36:43;60.13;;;22.60;;
30036;SDS011;36325;51.512;-0.382;2023-04-21T05:39:11;44.30;;;20.67;;
30036;SDS011;36325;51.512;-0.382;2023-04-21T05:41:38;54.80;;;20.67;;
30036;SDS011;36325;51.512;-0.382;2023-04-21T05:44:05;40.17;;;19.63;;
30036;SDS011;36325;51.512;-0.382;2023-04-21T05:46:32;40.17;;;20.15;;
30036;SDS011;36325;51.512;-0.382;2023-04-21T05:49:01;48.65;;;19.48;;
30036;SDS011;36325;51.512;-0.382;2023-04-21T05:51:28;41.83;;;20.58;;
30036;SDS011;36325;51.512;-0.382;2023-04-21T05:53:55;49.45;;;21.67;;
30036;SDS011;36325;51.512;-0.382;2023-04-21T05:56:23;55.17;;;22.90;;
30036;SDS011;36325;51.512;-0.382;2023-04-21T05:58:50;50.63;;;21.85;;
30036;SDS011;36325;51.512;-0.382;2023-04-21T06:01:18;51.88;;;20.65;;
30036;SDS011;36325;51.512;-0.382;2023-04-21T06:03:45;53.03;;;23.42;;
30036;SDS011;36325;51.512;-0.382;2023-04-21T06:06:16;42.58;;;19.75;;
30036;SDS011;36325;51.512;-0.382;2023-04-21T06:08:43;42.05;;;19.42;;
30036;SDS011;36325;51.512;-0.382;2023-04-21T06:11:10;43.15;;;18.88;;
30036;SDS011;36325;51.512;-0.382;2023-04-21T06:13:37;42.70;;;19.35;;
30036;SDS011;36325;51.512;-0.382;2023-04-21T06:16:06;52.63;;;21.15;;
30036;SDS011;36325;51.512;-0.382;2023-04-21T06:18:34;41.50;;;20.58;;
30036;SDS011;36325;51.512;-0.382;2023-04-21T06:21:01;53.78;;;20.73;;
30036;SDS011;36325;51.512;-0.382;2023-04-21T06:23:28;44.17;;;20.00;;
30036;SDS011;36325;51.512;-0.382;2023-04-21T06:26:02;31.63;;;18.17;;
30036;SDS011;36325;51.512;-0.382;2023-04-21T06:28:33;45.08;;;19.95;;
30036;SDS011;36325;51.512;-0.382;2023-04-21T06:31:01;50.60;;;19.25;;
30036;SDS011;36325;51.512;-0.382;2023-04-21T06:33:31;43.70;;;18.95;;
30036;SDS011;36325;51.512;-0.382;2023-04-21T06:35:58;46.30;;;18.63;;
30036;SDS011;36325;51.512;-0.382;2023-04-21T06:38:26;41.25;;;18.40;;
30036;SDS011;36325;51.512;-0.382;2023-04-21T06:40:53;32.30;;;17.60;;
30036;SDS011;36325;51.512;-0.382;2023-04-21T06:43:20;34.08;;;16.52;;
30036;SDS011;36325;51.512;-0.382;2023-04-21T06:45:47;38.42;;;17.45;;
30036;SDS011;36325;51.512;-0.382;2023-04-21T06:48:14;42.45;;;16.75;;
30036;SDS011;36325;51.512;-0.382;2023-04-21T06:50:42;36.63;;;16.48;;
30036;SDS011;36325;51.512;-0.382;2023-04-21T06:53:10;32.55;;;16.48;;
30036;SDS011;36325;51.512;-0.382;2023-04-21T06:55:37;34.25;;;16.67;;
30036;SDS011;36325;51.512;-0.382;2023-04-21T06:58:04;38.97;;;17.02;;
30036;SDS011;36325;51.512;-0.382;2023-04-21T07:00:32;41.22;;;17.58;;
30036;SDS011;36325;51.512;-0.382;2023-04-21T07:02:59;29.38;;;14.43;;
30036;SDS011;36325;51.512;-0.382;2023-04-21T07:05:26;35.05;;;15.65;;
30036;SDS011;36325;51.512;-0.382;2023-04-21T07:07:54;29.50;;;15.88;;
30036;SDS011;36325;51.512;-0.382;2023-04-21T07:10:25;26.33;;;13.88;;
30036;SDS011;36325;51.512;-0.382;2023-04-21T07:12:54;28.33;;;14.77;;
30036;SDS011;36325;51.512;-0.382;2023-04-21T07:15:21;30.60;;;14.65;;
30036;SDS011;36325;51.512;-0.382;2023-04-21T07:17:49;21.70;;;12.13;;
30036;SDS011;36325;51.512;-0.382;2023-04-21T07:20:16;27.17;;;13.70;;
30036;SDS011;36325;51.512;-0.382;2023-04-21T07:22:44;21.17;;;12.05;;
30036;SDS011;36325;51.512;-0.382;2023-04-21T07:25:11;24.45;;;14.30;;
30036;SDS011;36325;51.512;-0.382;2023-04-21T07:27:38;25.25;;;13.75;;
30036;SDS011;36325;51.512;-0.382;2023-04-21T07:30:06;26.77;;;12.85;;
30036;SDS011;36325;51.512;-0.382;2023-04-21T07:32:33;25.45;;;11.40;;
30036;SDS011;36325;51.512;-0.382;2023-04-21T07:35:03;25.20;;;12.07;;
30036;SDS011;36325;51.512;-0.382;2023-04-21T07:37:31;22.80;;;12.35;;
30036;SDS011;36325;51.512;-0.382;2023-04-21T07:39:59;19.65;;;10.95;;
30036;SDS011;36325;51.512;-0.382;2023-04-21T07:42:26;18.40;;;11.00;;
30036;SDS011;36325;51.512;-0.382;2023-04-21T07:44:54;24.48;;;10.77;;
30036;SDS011;36325;51.512;-0.382;2023-04-21T07:47:22;25.90;;;11.73;;
30036;SDS011;36325;51.512;-0.382;2023-04-21T07:49:50;16.40;;;10.45;;
30036;SDS011;36325;51.512;-0.382;2023-04-21T07:52:17;17.55;;;9.82;;
30036;SDS011;36325;51.512;-0.382;2023-04-21T07:54:44;18.40;;;9.60;;
30036;SDS011;36325;51.512;-0.382;2023-04-21T07:57:11;18.08;;;10.18;;
30036;SDS011;36325;51.512;-0.382;2023-04-21T07:59:39;16.27;;;9.32;;
30036;SDS011;36325;51.512;-0.382;2023-04-21T08:02:06;20.00;;;10.27;;
30036;SDS011;36325;51.512;-0.382;2023-04-21T08:04:34;16.45;;;10.07;;
30036;SDS011;36325;51.512;-0.382;2023-04-21T08:07:01;17.67;;;10.13;;
30036;SDS011;36325;51.512;-0.382;2023-04-21T08:09:29;18.58;;;9.48;;
30036;SDS011;36325;51.512;-0.382;2023-04-21T08:11:56;14.70;;;9.05;;
30036;SDS011;36325;51.512;-0.382;2023-04-21T08:14:24;18.90;;;9.85;;
30036;SDS011;36325;51.512;-0.382;2023-04-21T08:16:52;19.45;;;9.38;;
30036;SDS011;36325;51.512;-0.382;2023-04-21T08:19:22;20.65;;;9.07;;
30036;SDS011;36325;51.512;-0.382;2023-04-21T08:21:49;17.08;;;8.93;;
30036;SDS011;36325;51.512;-0.382;2023-04-21T08:24:17;20.30;;;9.13;;
30036;SDS011;36325;51.512;-0.382;2023-04-21T08:26:44;16.00;;;7.82;;
30036;SDS011;36325;51.512;-0.382;2023-04-21T08:29:11;14.32;;;7.82;;
30036;SDS011;36325;51.512;-0.382;2023-04-21T08:31:39;17.50;;;8.23;;
30036;SDS011;36325;51.512;-0.382;2023-04-21T08:34:07;15.00;;;8.10;;
30036;SDS011;36325;51.512;-0.382;2023-04-21T08:36:34;12.77;;;7.22;;
30036;SDS011;36325;51.512;-0.382;2023-04-21T08:39:02;17.35;;;7.90;;
30036;SDS011;36325;51.512;-0.382;2023-04-21T08:41:29;15.02;;;8.30;;
30036;SDS011;36325;51.512;-0.382;2023-04-21T08:43:57;15.40;;;7.90;;
30036;SDS011;36325;51.512;-0.382;2023-04-21T08:46:24;17.08;;;8.40;;
30036;SDS011;36325;51.512;-0.382;2023-04-21T08:48:54;13.98;;;8.13;;
30036;SDS011;36325;51.512;-0.382;2023-04-21T08:51:23;13.88;;;7.93;;
30036;SDS011;36325;51.512;-0.382;2023-04-21T08:53:53;15.23;;;7.40;;
30036;SDS011;36325;51.512;-0.382;2023-04-21T08:56:24;11.85;;;7.60;;
30036;SDS011;36325;51.512;-0.382;2023-04-21T08:58:52;15.27;;;7.78;;
30036;SDS011;36325;51.512;-0.382;2023-04-21T09:01:19;13.98;;;8.38;;
30036;SDS011;36325;51.512;-0.382;2023-04-21T09:03:47;11.40;;;7.05;;
30036;SDS011;36325;51.512;-0.382;2023-04-21T09:06:14;16.67;;;8.43;;
30036;SDS011;36325;51.512;-0.382;2023-04-21T09:08:42;18.08;;;7.75;;
30036;SDS011;36325;51.512;-0.382;2023-04-21T09:11:18;19.35;;;8.07;;
30036;SDS011;36325;51.512;-0.382;2023-04-21T09:13:46;14.40;;;8.18;;
30036;SDS011;36325;51.512;-0.382;2023-04-21T09:16:20;15.68;;;8.57;;
30036;SDS011;36325;51.512;-0.382;2023-04-21T09:18:48;15.45;;;8.88;;
30036;SDS011;36325;51.512;-0.382;2023-04-21T09:21:17;15.55;;;8.57;;
30036;SDS011;36325;51.512;-0.382;2023-04-21T09:23:51;15.80;;;7.95;;
30036;SDS011;36325;51.512;-0.382;2023-04-21T09:26:19;14.48;;;8.38;;
30036;SDS011;36325;51.512;-0.382;2023-04-21T09:28:50;15.20;;;8.45;;
30036;SDS011;36325;51.512;-0.382;2023-04-21T09:31:19;15.90;;;8.02;;
30036;SDS011;36325;51.512;-0.382;2023-04-21T09:33:54;12.50;;;7.63;;
30036;SDS011;36325;51.512;-0.382;2023-04-21T09:36:26;15.02;;;7.95;;
30036;SDS011;36325;51.512;-0.382;2023-04-21T09:39:00;12.68;;;7.50;;
30036;SDS011;36325;51.512;-0.382;2023-04-21T09:41:49;15.07;;;7.55;;
30036;SDS011;36325;51.512;-0.382;2023-04-21T09:44:16;16.95;;;8.43;;
30036;SDS011;36325;51.512;-0.382;2023-04-21T09:46:46;16.15;;;7.95;;
30036;SDS011;36325;51.512;-0.382;2023-04-21T09:51:44;18.45;;;9.30;;
30036;SDS011;36325;51.512;-0.382;2023-04-21T09:54:32;17.48;;;8.90;;
30036;SDS011;36325;51.512;-0.382;2023-04-21T09:57:00;14.75;;;7.88;;
30036;SDS011;36325;51.512;-0.382;2023-04-21T09:59:31;17.88;;;9.65;;
30036;SDS011;36325;51.512;-0.382;2023-04-21T10:02:03;17.58;;;9.93;;
30036;SDS011;36325;51.512;-0.382;2023-04-21T10:04:33;17.52;;;9.68;;
30036;SDS011;36325;51.512;-0.382;2023-04-21T10:07:02;21.50;;;10.05;;
30036;SDS011;36325;51.512;-0.382;2023-04-21T10:09:31;20.40;;;11.90;;
30036;SDS011;36325;51.512;-0.382;2023-04-21T10:12:06;17.15;;;8.77;;
30036;SDS011;36325;51.512;-0.382;2023-04-21T10:14:35;23.35;;;10.63;;
30036;SDS011;36325;51.512;-0.382;2023-04-21T10:17:03;17.83;;;9.80;;
30036;SDS011;36325;51.512;-0.382;2023-04-21T10:19:32;20.02;;;8.98;;
30036;SDS011;36325;51.512;-0.382;2023-04-21T10:22:07;21.23;;;9.00;;
30036;SDS011;36325;51.512;-0.382;2023-04-21T10:24:36;15.15;;;9.63;;
30036;SDS011;36325;51.512;-0.382;2023-04-21T10:27:10;20.60;;;9.82;;
30036;SDS011;36325;51.512;-0.382;2023-04-21T10:29:38;17.58;;;9.75;;
30036;SDS011;36325;51.512;-0.382;2023-04-21T10:38:40;21.15;;;10.13;;
30036;SDS011;36325;51.512;-0.382;2023-04-21T10:41:26;16.58;;;9.55;;
30036;SDS011;36325;51.512;-0.382;2023-04-21T10:44:00;22.30;;;10.70;;
30036;SDS011;36325;51.512;-0.382;2023-04-21T10:46:49;18.30;;;10.73;;
30036;SDS011;36325;51.512;-0.382;2023-04-21T10:54:29;21.67;;;11.63;;
30036;SDS011;36325;51.512;-0.382;2023-04-21T10:57:16;25.48;;;12.70;;
30036;SDS011;36325;51.512;-0.382;2023-04-21T10:59:45;30.27;;;13.82;;
30036;SDS011;36325;51.512;-0.382;2023-04-21T11:02:14;21.83;;;12.35;;
30036;SDS011;36325;51.512;-0.382;2023-04-21T11:04:42;21.17;;;11.73;;
30036;SDS011;36325;51.512;-0.382;2023-04-21T11:07:14;19.20;;;8.98;;
30036;SDS011;36325;51.512;-0.382;2023-04-21T11:09:43;15.73;;;9.15;;
30036;SDS011;36325;51.512;-0.382;2023-04-21T11:12:15;18.90;;;9.98;;
30036;SDS011;36325;51.512;-0.382;2023-04-21T11:14:45;16.30;;;8.80;;
30036;SDS011;36325;51.512;-0.382;2023-04-21T11:17:18;11.23;;;6.22;;
30036;SDS011;36325;51.512;-0.382;2023-04-21T11:19:46;12.45;;;6.70;;
30036;SDS011;36325;51.512;-0.382;2023-04-21T11:22:19;11.93;;;6.75;;
30036;SDS011;36325;51.512;-0.382;2023-04-21T11:24:48;11.82;;;6.60;;
30036;SDS011;36325;51.512;-0.382;2023-04-21T11:27:18;11.00;;;6.32;;
30036;SDS011;36325;51.512;-0.382;2023-04-21T11:29:48;10.02;;;5.65;;
30036;SDS011;36325;51.512;-0.382;2023-04-21T11:32:16;11.75;;;6.97;;
30036;SDS011;36325;51.512;-0.382;2023-04-21T11:34:44;8.82;;;4.70;;
30036;SDS011;36325;51.512;-0.382;2023-04-21T11:37:15;10.32;;;5.88;;
30036;SDS011;36325;51.512;-0.382;2023-04-21T11:39:48;12.88;;;6.35;;
30036;SDS011;36325;51.512;-0.382;2023-04-21T11:42:21;11.35;;;5.97;;
30036;SDS011;36325;51.512;-0.382;2023-04-21T11:44:49;10.10;;;6.03;;
30036;SDS011;36325;51.512;-0.382;2023-04-21T11:47:19;7.78;;;5.35;;
30036;SDS011;36325;51.512;-0.382;2023-04-21T11:49:52;8.40;;;5.90;;
30036;SDS011;36325;51.512;-0.382;2023-04-21T11:52:28;10.73;;;5.10;;
30036;SDS011;36325;51.512;-0.382;2023-04-21T11:57:31;9.18;;;5.13;;
30036;SDS011;36325;51.512;-0.382;2023-04-21T12:00:00;9.43;;;5.05;;
30036;SDS011;36325;51.512;-0.382;2023-04-21T12:02:30;8.77;;;4.40;;
30036;SDS011;36325;51.512;-0.382;2023-04-21T12:05:03;13.27;;;4.68;;
30036;SDS011;36325;51.512;-0.382;2023-04-21T12:07:32;6.80;;;4.53;;
30036;SDS011;36325;51.512;-0.382;2023-04-21T12:10:12;7.72;;;5.20;;
30036;SDS011;36325;51.512;-0.382;2023-04-21T12:12:42;9.18;;;4.90;;
30036;SDS011;36325;51.512;-0.382;2023-04-21T12:15:11;7.50;;;4.82;;
30036;SDS011;36325;51.512;-0.382;2023-04-21T12:17:47;6.13;;;4.18;;
30036;SDS011;36325;51.512;-0.382;2023-04-21T12:20:20;10.18;;;5.15;;
30036;SDS011;36325;51.512;-0.382;2023-04-21T12:22:49;8.15;;;5.38;;
30036;SDS011;36325;51.512;-0.382;2023-04-21T12:25:16;9.77;;;4.38;;
30036;SDS011;36325;51.512;-0.382;2023-04-21T12:27:47;10.02;;;5.85;;
30036;SDS011;36325;51.512;-0.382;2023-04-21T12:30:17;7.93;;;4.75;;
30036;SDS011;36325;51.512;-0.382;2023-04-21T12:32:44;6.50;;;4.72;;
30036;SDS011;36325;51.512;-0.382;2023-04-21T12:35:13;6.32;;;4.90;;
30036;SDS011;36325;51.512;-0.382;2023-04-21T12:37:40;12.43;;;6.20;;
30036;SDS011;36325;51.512;-0.382;2023-04-21T12:40:07;8.10;;;5.38;;
30036;SDS011;36325;51.512;-0.382;2023-04-21T12:42:35;9.20;;;5.95;;
30036;SDS011;36325;51.512;-0.382;2023-04-21T12:45:04;9.02;;;5.60;;
30036;SDS011;36325;51.512;-0.382;2023-04-21T12:47:32;10.70;;;6.10;;
30036;SDS011;36325;51.512;-0.382;2023-04-21T12:49:59;11.48;;;5.68;;
30036;SDS011;36325;51.512;-0.382;2023-04-21T12:52:27;12.90;;;6.40;;
30036;SDS011;36325;51.512;-0.382;2023-04-21T12:54:54;10.73;;;5.45;;
30036;SDS011;36325;51.512;-0.382;2023-04-21T12:57:21;15.65;;;7.28;;
30036;SDS011;36325;51.512;-0.382;2023-04-21T12:59:49;14.50;;;7.72;;
30036;SDS011;36325;51.512;-0.382;2023-04-21T13:02:16;12.55;;;6.90;;
30036;SDS011;36325;51.512;-0.382;2023-04-21T13:04:44;11.75;;;7.03;;
30036;SDS011;36325;51.512;-0.382;2023-04-21T13:07:11;13.80;;;7.15;;
30036;SDS011;36325;51.512;-0.382;2023-04-21T13:09:39;10.30;;;6.28;;
30036;SDS011;36325;51.512;-0.382;2023-04-21T13:12:06;13.70;;;8.10;;
30036;SDS011;36325;51.512;-0.382;2023-04-21T13:14:33;13.30;;;7.95;;
30036;SDS011;36325;51.512;-0.382;2023-04-21T13:17:01;18.50;;;8.57;;
30036;SDS011;36325;51.512;-0.382;2023-04-21T13:19:28;11.98;;;7.68;;
30036;SDS011;36325;51.512;-0.382;2023-04-21T13:21:56;13.70;;;7.78;;
30036;SDS011;36325;51.512;-0.382;2023-04-21T13:24:23;28.98;;;9.27;;
30036;SDS011;36325;51.512;-0.382;2023-04-21T13:26:52;15.38;;;8.02;;
30036;SDS011;36325;51.512;-0.382;2023-04-21T13:29:20;12.05;;;7.32;;
30036;SDS011;36325;51.512;-0.382;2023-04-21T13:31:47;12.23;;;8.27;;
30036;SDS011;36325;51.512;-0.382;2023-04-21T13:34:15;17.38;;;7.75;;
30036;SDS011;36325;51.512;-0.382;2023-04-21T13:36:42;12.88;;;8.18;;
30036;SDS011;36325;51.512;-0.382;2023-04-21T13:39:10;17.65;;;8.75;;
30036;SDS011;36325;51.512;-0.382;2023-04-21T13:41:37;15.15;;;7.93;;
30036;SDS011;36325;51.512;-0.382;2023-04-21T13:44:04;13.10;;;8.02;;
30036;SDS011;36325;51.512;-0.382;2023-04-21T13:46:32;12.50;;;8.30;;
30036;SDS011;36325;51.512;-0.382;2023-04-21T13:48:59;17.27;;;9.23;;
30036;SDS011;36325;51.512;-0.382;2023-04-21T13:51:26;14.95;;;8.73;;
30036;SDS011;36325;51.512;-0.382;2023-04-21T13:53:55;14.27;;;9.43;;
30036;SDS011;36325;51.512;-0.382;2023-04-21T13:56:22;15.52;;;8.38;;
30036;SDS011;36325;51.512;-0.382;2023-04-21T13:58:50;16.08;;;8.98;;
30036;SDS011;36325;51.512;-0.382;2023-04-21T14:01:17;13.82;;;8.55;;
30036;SDS011;36325;51.512;-0.382;2023-04-21T14:03:47;17.40;;;9.43;;
30036;SDS011;36325;51.512;-0.382;2023-04-21T14:06:14;12.20;;;7.22;;
30036;SDS011;36325;51.512;-0.382;2023-04-21T14:08:42;14.10;;;7.82;;
30036;SDS011;36325;51.512;-0.382;2023-04-21T14:11:09;13.13;;;8.45;;
30036;SDS011;36325;51.512;-0.382;2023-04-21T14:13:37;15.45;;;8.15;;
30036;SDS011;36325;51.512;-0.382;2023-04-21T14:16:13;10.35;;;6.70;;
30036;SDS011;36325;51.512;-0.382;2023-04-21T14:18:40;9.77;;;6.90;;
30036;SDS011;36325;51.512;-0.382;2023-04-21T14:21:11;11.10;;;7.68;;
30036;SDS011;36325;51.512;-0.382;2023-04-21T14:23:38;10.30;;;7.03;;
30036;SDS011;36325;51.512;-0.382;2023-04-21T14:26:05;16.42;;;8.80;;
30036;SDS011;36325;51.512;-0.382;2023-04-21T14:28:33;11.40;;;7.28;;
30036;SDS011;36325;51.512;-0.382;2023-04-21T14:31:00;11.90;;;8.05;;
30036;SDS011;36325;51.512;-0.382;2023-04-21T14:33:27;11.95;;;7.82;;
30036;SDS011;36325;51.512;-0.382;2023-04-21T14:35:55;11.98;;;7.72;;
30036;SDS011;36325;51.512;-0.382;2023-04-21T14:38:22;21.60;;;8.85;;
30036;SDS011;36325;51.512;-0.382;2023-04-21T14:40:51;11.93;;;8.27;;
30036;SDS011;36325;51.512;-0.382;2023-04-21T14:43:21;12.57;;;7.75;;